createdAt,value
2019-04-14T00:00:29.284Z,17.98
2019-04-14T00:02:59.791Z,18.62
2019-04-14T00:05:31.046Z,17.87
2019-04-14T00:07:58.475Z,17.23
2019-04-14T00:10:26.992Z,17.98
2019-04-14T00:12:55.682Z,16.90
2019-04-14T00:15:30.898Z,17.10
2019-04-14T00:17:54.610Z,18.80
2019-04-14T00:20:23.294Z,17.57
2019-04-14T00:22:51.744Z,17.42
2019-04-14T00:25:20.170Z,17.60
2019-04-14T00:27:49.924Z,18.32
2019-04-14T00:30:18.865Z,17.90
2019-04-14T00:32:49.069Z,16.95
2019-04-14T00:35:34.355Z,17.57
2019-04-14T00:38:04.486Z,18.12
2019-04-14T00:40:51.821Z,19.20
2019-04-14T00:43:22.100Z,16.60
2019-04-14T00:45:55.274Z,19.55
2019-04-14T00:48:24.649Z,18.77
2019-04-14T00:50:54.309Z,18.75
2019-04-14T00:53:22.920Z,16.90
2019-04-14T00:55:51.427Z,17.62
2019-04-14T00:58:19.890Z,18.42
2019-04-14T01:00:50.099Z,19.07
2019-04-14T01:03:19.865Z,17.30
2019-04-14T01:05:48.479Z,17.70
2019-04-14T01:08:17.005Z,18.67
2019-04-14T01:10:45.529Z,19.67
2019-04-14T01:13:14.200Z,18.30
2019-04-14T01:15:51.178Z,18.07
2019-04-14T01:18:12.976Z,19.98
2019-04-14T01:20:42.730Z,18.98
2019-04-14T01:23:11.309Z,17.90
2019-04-14T01:25:40.966Z,16.70
2019-04-14T01:28:09.597Z,19.62
2019-04-14T01:30:39.366Z,19.15
2019-04-14T01:33:07.990Z,17.75
2019-04-14T01:35:36.418Z,18.23
2019-04-14T01:38:05.903Z,16.07
2019-04-14T01:40:34.563Z,18.55
2019-04-14T01:43:03.857Z,17.02
2019-04-14T01:45:32.350Z,16.67
2019-04-14T01:48:01.699Z,18.60
2019-04-14T01:50:34.971Z,18.23
2019-04-14T01:53:07.593Z,20.00
2019-04-14T01:55:37.715Z,19.48
2019-04-14T01:58:16.530Z,17.95
2019-04-14T02:00:46.729Z,17.02
2019-04-14T02:03:15.342Z,18.30
2019-04-14T02:05:43.782Z,17.48
2019-04-14T02:08:13.413Z,17.12
2019-04-14T02:10:43.351Z,18.42
2019-04-14T02:13:11.999Z,18.05
2019-04-14T02:15:40.437Z,16.15
2019-04-14T02:18:09.946Z,18.00
2019-04-14T02:20:38.570Z,16.52
2019-04-14T02:23:08.143Z,16.52
2019-04-14T02:25:38.098Z,18.05
2019-04-14T02:28:06.919Z,17.73
2019-04-14T02:30:41.748Z,18.75
2019-04-14T02:33:40.887Z,17.20
2019-04-14T02:36:11.414Z,17.10
2019-04-14T02:41:07.358Z,19.40
2019-04-14T02:48:50.833Z,17.80
2019-04-14T02:51:06.234Z,18.02
2019-04-14T02:53:44.314Z,17.40
2019-04-14T02:56:08.160Z,19.55
2019-04-14T02:58:38.674Z,18.30
2019-04-14T03:01:09.875Z,16.70
2019-04-14T03:03:40.992Z,19.30
2019-04-14T03:11:01.202Z,19.12
2019-04-14T03:13:37.544Z,18.17
2019-04-14T03:16:02.430Z,18.62
2019-04-14T03:24:08.799Z,19.30
2019-04-14T03:26:41.903Z,16.67
2019-04-14T03:29:21.339Z,17.55
2019-04-14T03:39:27.343Z,21.52
2019-04-14T03:41:54.755Z,19.45
2019-04-14T03:47:02.949Z,21.65
2019-04-14T03:49:24.623Z,20.27
2019-04-14T03:51:55.838Z,22.05
2019-04-14T03:54:15.862Z,20.27
2019-04-14T03:56:47.129Z,22.77
2019-04-14T03:59:17.354Z,22.15
2019-04-14T04:01:47.760Z,20.57
2019-04-14T04:04:16.595Z,20.60
2019-04-14T04:06:46.296Z,17.90
2019-04-14T04:09:15.001Z,20.75
2019-04-14T04:11:43.615Z,20.48
2019-04-14T04:14:12.075Z,19.77
2019-04-14T04:16:59.477Z,20.88
2019-04-14T04:19:29.704Z,18.98
2019-04-14T04:22:02.483Z,19.48
2019-04-14T04:24:36.847Z,21.25
2019-04-14T04:27:11.090Z,19.77
2019-04-14T04:29:44.373Z,24.15
2019-04-14T04:32:20.747Z,20.08
2019-04-14T04:34:51.264Z,19.80
2019-04-14T04:37:24.365Z,18.82
2019-04-14T04:39:56.133Z,19.10
2019-04-14T04:42:24.838Z,20.08
2019-04-14T04:44:53.348Z,22.77
2019-04-14T04:47:23.032Z,17.32
2019-04-14T04:49:51.750Z,17.07
2019-04-14T04:52:21.233Z,20.12
2019-04-14T04:54:49.776Z,20.02
2019-04-14T04:57:18.232Z,15.88
2019-04-14T04:59:47.421Z,18.95
2019-04-14T05:02:15.967Z,16.23
2019-04-14T05:04:44.444Z,18.00
2019-04-14T05:07:12.969Z,19.30
2019-04-14T05:10:00.172Z,18.90
2019-04-14T05:12:33.079Z,22.77
2019-04-14T05:15:03.654Z,26.23
2019-04-14T05:17:40.952Z,23.18
2019-04-14T05:20:09.716Z,22.80
2019-04-14T05:22:38.153Z,18.55
2019-04-14T05:25:07.811Z,18.27
2019-04-14T05:27:36.588Z,19.40
2019-04-14T05:30:06.883Z,17.35
2019-04-14T05:32:35.405Z,16.80
2019-04-14T05:35:05.225Z,16.17
2019-04-14T05:37:33.902Z,16.87
2019-04-14T05:40:03.680Z,17.37
2019-04-14T05:42:32.377Z,18.25
2019-04-14T05:45:00.837Z,19.60
2019-04-14T05:47:30.440Z,18.45
2019-04-14T05:49:59.365Z,20.97
2019-04-14T05:52:28.019Z,25.35
2019-04-14T05:54:57.861Z,22.02
2019-04-14T05:57:26.443Z,20.50
2019-04-14T05:59:54.888Z,19.45
2019-04-14T06:02:24.426Z,19.05
2019-04-14T06:04:53.241Z,18.52
2019-04-14T06:07:21.767Z,17.55
2019-04-14T06:09:50.209Z,19.42
2019-04-14T06:12:18.663Z,17.82
2019-04-14T06:14:47.174Z,14.45
2019-04-14T06:17:15.662Z,17.27
2019-04-14T06:19:44.105Z,17.73
2019-04-14T06:22:33.386Z,16.85
2019-04-14T06:25:01.858Z,17.82
2019-04-14T06:27:30.375Z,14.35
2019-04-14T06:30:02.057Z,16.15
2019-04-14T06:32:38.114Z,12.53
2019-04-14T06:35:20.646Z,14.78
2019-04-14T06:37:50.735Z,15.50
2019-04-14T06:40:20.517Z,14.73
2019-04-14T06:42:48.970Z,16.17
2019-04-14T06:45:17.412Z,14.75
2019-04-14T06:47:45.838Z,14.20
2019-04-14T06:50:14.350Z,13.85
2019-04-14T06:52:42.886Z,15.53
2019-04-14T06:55:11.336Z,16.90
2019-04-14T06:57:39.778Z,15.32
2019-04-14T07:00:08.275Z,12.93
2019-04-14T07:02:36.702Z,16.00
2019-04-14T07:05:06.406Z,14.38
2019-04-14T07:07:34.886Z,13.58
2019-04-14T07:10:04.275Z,13.88
2019-04-14T07:12:32.703Z,12.93
2019-04-14T07:15:01.162Z,14.15
2019-04-14T07:17:29.662Z,13.90
2019-04-14T07:20:02.347Z,14.85
2019-04-14T07:22:28.243Z,11.75
2019-04-14T07:24:56.697Z,13.45
2019-04-14T07:27:25.250Z,14.58
2019-04-14T07:30:11.685Z,13.20
2019-04-14T07:32:57.893Z,12.33
2019-04-14T07:35:38.727Z,14.40
2019-04-14T07:38:11.767Z,16.75
2019-04-14T07:40:58.079Z,12.82
2019-04-14T07:43:43.291Z,15.10
2019-04-14T07:46:31.826Z,13.15
2019-04-14T07:49:18.507Z,12.78
2019-04-14T07:52:04.753Z,12.13
2019-04-14T07:54:46.899Z,13.43
2019-04-14T07:57:35.214Z,17.60
2019-04-14T08:00:07.841Z,12.58
2019-04-14T08:02:43.567Z,17.05
2019-04-14T08:05:13.665Z,12.90
2019-04-14T08:07:42.999Z,13.08
2019-04-14T08:10:11.909Z,18.52
2019-04-14T08:12:40.346Z,12.68
2019-04-14T08:15:09.205Z,13.32
2019-04-14T08:17:37.685Z,12.68
2019-04-14T08:20:09.227Z,13.15
2019-04-14T08:22:37.730Z,13.08
2019-04-14T08:25:06.639Z,13.30
2019-04-14T08:27:35.083Z,12.73
2019-04-14T08:30:04.957Z,16.70
2019-04-14T08:32:34.079Z,13.90
2019-04-14T08:35:02.512Z,13.98
2019-04-14T08:37:30.963Z,14.73
2019-04-14T08:39:59.397Z,11.48
2019-04-14T08:42:46.017Z,12.37
2019-04-14T08:45:16.250Z,12.58
2019-04-14T08:47:54.897Z,12.65
2019-04-14T08:50:25.051Z,13.25
2019-04-14T08:52:55.204Z,12.60
2019-04-14T08:55:27.747Z,12.60
2019-04-14T09:00:52.036Z,11.80
2019-04-14T09:03:28.087Z,11.60
2019-04-14T09:06:10.232Z,14.07
2019-04-14T09:08:46.189Z,12.00
2019-04-14T09:11:19.066Z,17.07
2019-04-14T09:13:47.489Z,11.88
2019-04-14T09:16:15.953Z,12.95
2019-04-14T09:18:44.437Z,14.53
2019-04-14T09:21:12.894Z,13.20
2019-04-14T09:23:41.333Z,15.60
2019-04-14T09:26:09.790Z,12.73
2019-04-14T09:28:38.237Z,11.38
2019-04-14T09:31:06.673Z,13.83
2019-04-14T09:33:35.111Z,11.05
2019-04-14T09:36:03.602Z,11.60
2019-04-14T09:38:32.037Z,10.95
2019-04-14T09:41:00.475Z,13.65
2019-04-14T09:43:28.930Z,11.93
2019-04-14T09:45:57.360Z,11.25
2019-04-14T09:48:25.822Z,12.93
2019-04-14T09:51:04.229Z,9.88
2019-04-14T09:53:24.417Z,11.75
2019-04-14T09:55:52.870Z,11.05
2019-04-14T09:58:21.306Z,11.25
2019-04-14T10:00:49.749Z,12.35
2019-04-14T10:03:19.526Z,11.68
2019-04-14T10:05:47.958Z,12.68
2019-04-14T10:08:16.469Z,11.75
2019-04-14T10:10:44.990Z,14.50
2019-04-14T10:13:13.527Z,11.85
2019-04-14T10:15:41.957Z,14.23
2019-04-14T10:18:10.415Z,12.55
2019-04-14T10:20:39.814Z,12.33
2019-04-14T10:23:08.248Z,14.03
2019-04-14T10:25:36.815Z,12.98
2019-04-14T10:28:05.262Z,16.05
2019-04-14T10:30:33.716Z,12.13
2019-04-14T10:33:02.220Z,15.90
2019-04-14T10:35:30.656Z,14.73
2019-04-14T10:37:59.082Z,16.32
2019-04-14T10:40:27.515Z,19.15
2019-04-14T10:42:56.035Z,18.67
2019-04-14T10:45:24.503Z,16.23
2019-04-14T10:47:53.022Z,20.00
2019-04-14T10:50:30.855Z,16.30
